Bear Creek, Minnesota
Current Conditions -  °F | °C
As of 11:52 PM on Friday 28 Nov 2014 (Local Time) from KBJI Reporting Station
Overcast Overcast  
Wind Chill:   Ceiling: 1300
Heat Index: 17°   Visibility: 10mi
Dew Point: 13°   Wind: 9mph
Humidity: 85%   Direction: 170°S
Pressure: 29.58"   Gusts: NA
Location:  47.4609°N, 95.2384°W
Report Text: KBJI 290552Z AUTO 17008KT 10SM OVC013 M08/M11 A2958 RMK AO2 T10851106
Loading
Personal Weather Stations






























Interactive Weather Map New forecast layout! Learn more

10-Day Weather Forecast

Advertisements
Track Severe Weather on mobile